createdAt,value
2023-05-12T00:01:54.726Z,26.60
2023-05-12T00:04:21.355Z,26.59
2023-05-12T00:06:48.052Z,26.59
2023-05-12T00:09:14.993Z,26.59
2023-05-12T00:11:41.619Z,26.59
2023-05-12T00:14:09.177Z,26.59
2023-05-12T00:16:36.214Z,26.59
2023-05-12T00:19:02.957Z,26.58
2023-05-12T00:21:29.717Z,26.58
2023-05-12T00:23:56.357Z,26.58
2023-05-12T00:26:23.048Z,26.58
2023-05-12T00:28:50.273Z,26.58
2023-05-12T00:31:17.072Z,26.57
2023-05-12T00:33:43.788Z,26.57
2023-05-12T00:36:10.533Z,26.58
2023-05-12T00:38:37.862Z,26.57
2023-05-12T00:41:04.907Z,26.58
2023-05-12T00:43:31.459Z,26.58
2023-05-12T00:45:58.038Z,26.57
2023-05-12T00:48:25.211Z,26.57
2023-05-12T00:50:51.729Z,26.58
2023-05-12T00:53:18.806Z,26.58
2023-05-12T00:55:45.387Z,26.57
2023-05-12T00:58:12.327Z,26.57
2023-05-12T01:00:39.475Z,26.58
2023-05-12T01:03:06.898Z,26.58
2023-05-12T01:05:42.281Z,26.58
2023-05-12T01:08:09.165Z,26.59
2023-05-12T01:10:36.374Z,26.59
2023-05-12T01:13:03.000Z,26.59
2023-05-12T01:15:30.348Z,26.59
2023-05-12T01:17:58.069Z,26.59
2023-05-12T01:20:25.838Z,26.59
2023-05-12T01:22:52.799Z,26.58
2023-05-12T01:25:19.604Z,26.59
2023-05-12T01:27:46.212Z,26.59
2023-05-12T01:30:17.846Z,26.59
2023-05-12T01:32:45.133Z,26.58
2023-05-12T01:35:12.500Z,26.58
2023-05-12T01:37:45.156Z,26.58
2023-05-12T01:40:12.042Z,26.58
2023-05-12T01:42:40.153Z,26.57
2023-05-12T01:45:07.914Z,26.57
2023-05-12T01:47:34.695Z,26.57
2023-05-12T01:50:09.152Z,26.57
2023-05-12T01:52:37.125Z,26.56
2023-05-12T01:55:07.682Z,26.56
2023-05-12T01:57:39.597Z,26.57
2023-05-12T02:00:07.419Z,26.57
2023-05-12T02:02:42.160Z,26.57
2023-05-12T02:05:12.148Z,26.56
2023-05-12T02:07:39.180Z,26.56
2023-05-12T02:10:06.962Z,26.55
2023-05-12T02:12:33.963Z,26.55
2023-05-12T02:15:00.663Z,26.55
2023-05-12T02:17:28.212Z,26.54
2023-05-12T02:19:57.026Z,26.55
2023-05-12T02:22:24.117Z,26.55
2023-05-12T02:24:51.046Z,26.55
2023-05-12T02:27:18.420Z,26.56
2023-05-12T02:29:45.079Z,26.55
2023-05-12T02:32:11.747Z,26.55
2023-05-12T02:34:38.751Z,26.55
2023-05-12T02:37:05.528Z,26.55
2023-05-12T02:39:32.375Z,26.55
2023-05-12T02:41:58.993Z,26.54
2023-05-12T02:44:25.848Z,26.55
2023-05-12T02:46:52.871Z,26.55
2023-05-12T02:49:19.589Z,26.55
2023-05-12T02:51:47.916Z,26.54
2023-05-12T02:54:14.731Z,26.54
2023-05-12T02:56:42.324Z,26.54
2023-05-12T02:59:09.259Z,26.54
2023-05-12T03:01:35.884Z,26.55
2023-05-12T03:04:02.518Z,26.55
2023-05-12T03:06:29.563Z,26.55
2023-05-12T03:08:56.245Z,26.55
2023-05-12T03:11:22.812Z,26.56
2023-05-12T03:13:49.359Z,26.56
2023-05-12T03:16:19.505Z,26.56
2023-05-12T03:18:47.089Z,26.56
2023-05-12T03:21:13.746Z,26.56
2023-05-12T03:23:40.392Z,26.56
2023-05-12T03:26:07.095Z,26.56
2023-05-12T03:28:33.735Z,26.57
2023-05-12T03:31:00.548Z,26.57
2023-05-12T03:33:27.855Z,26.56
2023-05-12T03:35:54.447Z,26.56
2023-05-12T03:38:20.985Z,26.57
2023-05-12T03:40:51.856Z,26.57
2023-05-12T03:43:19.026Z,26.57
2023-05-12T03:45:45.557Z,26.57
2023-05-12T03:48:12.174Z,26.57
2023-05-12T03:50:39.030Z,26.58
2023-05-12T03:53:05.565Z,26.59
2023-05-12T03:55:34.269Z,26.59
2023-05-12T03:58:00.941Z,26.59
2023-05-12T04:00:27.651Z,26.59
2023-05-12T04:02:54.321Z,26.60
2023-05-12T04:05:21.000Z,26.60
2023-05-12T04:07:47.776Z,26.62
2023-05-12T04:10:14.502Z,26.62
2023-05-12T04:12:41.484Z,26.63
2023-05-12T04:15:09.250Z,26.63
2023-05-12T04:17:36.321Z,26.64
2023-05-12T04:20:03.690Z,26.64
2023-05-12T04:22:30.246Z,26.64
2023-05-12T04:24:56.804Z,26.65
2023-05-12T04:27:23.616Z,26.66
2023-05-12T04:29:50.997Z,26.66
2023-05-12T04:32:17.943Z,26.66
2023-05-12T04:34:45.129Z,26.67
2023-05-12T04:37:11.966Z,26.68
2023-05-12T04:39:39.240Z,26.68
2023-05-12T04:42:06.556Z,26.69
2023-05-12T04:44:34.212Z,26.69
2023-05-12T04:47:00.897Z,26.70
2023-05-12T04:49:27.440Z,26.71
2023-05-12T04:51:54.220Z,26.72
2023-05-12T04:54:21.221Z,26.74
2023-05-12T04:56:48.205Z,26.76
2023-05-12T04:59:15.406Z,26.77
2023-05-12T05:01:42.330Z,26.79
2023-05-12T05:04:09.020Z,26.80
2023-05-12T05:06:35.673Z,26.83
2023-05-12T05:09:02.601Z,26.84
2023-05-12T05:11:29.750Z,26.87
2023-05-12T05:13:56.364Z,26.87
2023-05-12T05:16:26.042Z,26.88
2023-05-12T05:18:52.858Z,26.88
2023-05-12T05:21:20.841Z,26.89
2023-05-12T05:23:47.591Z,26.89
2023-05-12T05:26:14.541Z,26.89
2023-05-12T05:28:41.107Z,26.89
2023-05-12T05:31:08.081Z,26.89
2023-05-12T05:33:34.911Z,26.88
2023-05-12T05:36:02.592Z,26.89
2023-05-12T05:38:29.314Z,26.88
2023-05-12T05:40:55.959Z,26.88
2023-05-12T05:43:23.618Z,26.88
2023-05-12T05:45:50.951Z,26.88
2023-05-12T05:48:18.743Z,26.88
2023-05-12T05:50:46.491Z,26.87
2023-05-12T05:53:13.217Z,26.88
2023-05-12T05:55:40.210Z,26.88
2023-05-12T05:58:07.082Z,26.89
2023-05-12T06:00:33.766Z,26.90
2023-05-12T06:03:01.051Z,26.91
2023-05-12T06:05:28.041Z,26.92
2023-05-12T06:07:54.851Z,26.93
2023-05-12T06:10:21.871Z,26.94
2023-05-12T06:12:49.749Z,26.97
2023-05-12T06:15:16.701Z,26.99
2023-05-12T06:17:43.598Z,27.02
2023-05-12T06:20:12.685Z,27.06
2023-05-12T06:22:41.690Z,27.08
2023-05-12T06:25:09.766Z,27.10
2023-05-12T06:27:37.831Z,27.13
2023-05-12T06:30:06.788Z,27.16
2023-05-12T06:32:33.482Z,27.18
2023-05-12T06:35:00.137Z,27.21
2023-05-12T06:37:27.000Z,27.24
2023-05-12T06:39:53.633Z,27.26
2023-05-12T06:42:20.322Z,27.28
2023-05-12T06:44:51.219Z,27.29
2023-05-12T06:47:20.511Z,27.32
2023-05-12T06:49:49.448Z,27.33
2023-05-12T06:52:16.792Z,27.34
2023-05-12T06:54:43.476Z,27.34
2023-05-12T06:57:10.191Z,27.34
2023-05-12T06:59:36.726Z,27.33
2023-05-12T07:02:03.553Z,27.32
2023-05-12T07:04:30.393Z,27.32
2023-05-12T07:06:56.967Z,27.32
2023-05-12T07:09:24.022Z,27.34
2023-05-12T07:11:50.619Z,27.34
2023-05-12T07:14:17.178Z,27.36
2023-05-12T07:16:43.971Z,27.38
2023-05-12T07:19:10.554Z,27.41
2023-05-12T07:21:37.465Z,27.43
2023-05-12T07:24:05.625Z,27.45
2023-05-12T07:26:32.729Z,27.48
2023-05-12T07:29:00.131Z,27.50
2023-05-12T07:31:27.328Z,27.53
2023-05-12T07:33:54.227Z,27.55
2023-05-12T07:36:22.072Z,27.58
2023-05-12T07:38:49.640Z,27.59
2023-05-12T07:41:16.818Z,27.61
2023-05-12T07:43:43.423Z,27.63
2023-05-12T07:46:10.282Z,27.64
2023-05-12T07:48:39.259Z,27.67
2023-05-12T07:51:06.451Z,27.69
2023-05-12T07:53:33.596Z,27.70
2023-05-12T07:56:00.555Z,27.71
2023-05-12T07:58:27.207Z,27.72
2023-05-12T08:00:54.217Z,27.71
2023-05-12T08:03:20.980Z,27.72
2023-05-12T08:05:48.110Z,27.72
2023-05-12T08:08:16.046Z,27.73
2023-05-12T08:10:43.577Z,27.74
2023-05-12T08:13:10.327Z,27.74
2023-05-12T08:15:36.977Z,27.75
2023-05-12T08:18:03.722Z,27.75
2023-05-12T08:20:31.072Z,27.76
2023-05-12T08:22:57.887Z,27.77
2023-05-12T08:25:27.301Z,27.77
2023-05-12T08:27:54.196Z,27.77
2023-05-12T08:30:21.141Z,27.78
2023-05-12T08:32:47.967Z,27.78
2023-05-12T08:35:14.904Z,27.78
2023-05-12T08:37:41.477Z,27.79
2023-05-12T08:40:20.384Z,27.78
2023-05-12T08:43:01.042Z,27.78
2023-05-12T08:45:28.868Z,27.79
2023-05-12T08:47:55.921Z,27.79
2023-05-12T08:50:22.713Z,27.78
2023-05-12T08:52:49.332Z,27.79
2023-05-12T08:55:16.131Z,27.77
2023-05-12T08:57:44.928Z,27.74
2023-05-12T09:00:11.972Z,27.68
2023-05-12T09:02:51.921Z,27.63
2023-05-12T09:05:21.997Z,27.59
2023-05-12T09:07:49.309Z,27.55
2023-05-12T09:10:29.962Z,27.50
2023-05-12T09:13:03.458Z,27.47
2023-05-12T09:15:34.777Z,27.43
2023-05-12T09:18:01.705Z,27.40
2023-05-12T09:20:31.977Z,27.37
2023-05-12T09:22:59.732Z,27.34
2023-05-12T09:25:26.371Z,27.31
2023-05-12T09:27:58.355Z,27.28
2023-05-12T09:30:29.254Z,27.25
2023-05-12T09:33:06.527Z,27.23
2023-05-12T09:35:40.920Z,27.20
2023-05-12T09:38:11.754Z,27.18
2023-05-12T09:40:38.681Z,27.15
2023-05-12T09:43:06.288Z,27.13
2023-05-12T09:45:34.472Z,27.12
2023-05-12T09:48:10.946Z,27.10
2023-05-12T09:50:48.142Z,27.08
2023-05-12T09:53:17.262Z,27.05
2023-05-12T09:55:44.584Z,27.03
2023-05-12T09:58:11.451Z,27.01
2023-05-12T10:00:58.587Z,26.99
2023-05-12T10:03:28.463Z,26.97
2023-05-12T10:05:58.303Z,26.94
2023-05-12T10:08:32.846Z,26.91
2023-05-12T10:10:59.846Z,26.89
2023-05-12T10:13:26.897Z,26.87
2023-05-12T10:15:55.753Z,26.86
2023-05-12T10:18:23.581Z,26.83
2023-05-12T10:20:51.313Z,26.82
2023-05-12T10:23:18.556Z,26.80
2023-05-12T10:25:45.471Z,26.79
2023-05-12T10:28:12.143Z,26.77
2023-05-12T10:30:39.178Z,26.75
2023-05-12T10:33:08.015Z,26.75
2023-05-12T10:35:35.464Z,26.73
2023-05-12T10:38:06.486Z,26.72
2023-05-12T10:40:33.094Z,26.72
2023-05-12T10:43:00.768Z,26.70
2023-05-12T10:45:27.470Z,26.68
2023-05-12T10:48:04.468Z,26.68
2023-05-12T10:50:31.155Z,26.66
2023-05-12T10:52:57.831Z,26.64
2023-05-12T10:55:35.350Z,26.62
2023-05-12T10:58:12.423Z,26.61
2023-05-12T11:00:46.979Z,26.59
2023-05-12T11:03:15.773Z,26.57
2023-05-12T11:05:44.262Z,26.55
2023-05-12T11:08:11.704Z,26.55
2023-05-12T11:10:40.885Z,26.54
2023-05-12T11:13:07.431Z,26.53
2023-05-12T11:15:34.084Z,26.52
2023-05-12T11:18:03.842Z,26.51
2023-05-12T11:20:31.141Z,26.50
2023-05-12T11:22:58.092Z,26.50
2023-05-12T11:25:26.524Z,26.49
2023-05-12T11:27:53.195Z,26.49
2023-05-12T11:30:20.749Z,26.49
2023-05-12T11:32:47.613Z,26.48
2023-05-12T11:35:16.106Z,26.49
2023-05-12T11:37:43.420Z,26.50
2023-05-12T11:40:20.295Z,26.50
2023-05-12T11:42:48.301Z,26.53
2023-05-12T11:45:21.003Z,26.56
2023-05-12T11:47:48.079Z,26.60
2023-05-12T11:50:24.411Z,26.63
2023-05-12T11:52:52.676Z,26.67
2023-05-12T11:55:21.897Z,26.70
2023-05-12T11:57:58.561Z,26.73
2023-05-12T12:00:33.257Z,26.77
2023-05-12T12:03:07.325Z,26.80
2023-05-12T12:05:33.953Z,26.82
2023-05-12T12:08:16.309Z,26.85
2023-05-12T12:10:45.329Z,26.89
2023-05-12T12:13:12.826Z,26.94
2023-05-12T12:15:39.422Z,27.00
2023-05-12T12:18:06.472Z,27.04
2023-05-12T12:20:33.194Z,27.06
2023-05-12T12:22:59.914Z,27.06
2023-05-12T12:25:26.865Z,27.05
2023-05-12T12:27:53.486Z,27.03
2023-05-12T12:30:20.242Z,27.01
2023-05-12T12:32:47.009Z,27.00
2023-05-12T12:35:13.727Z,26.99
2023-05-12T12:37:40.656Z,26.99
2023-05-12T12:40:08.185Z,27.01
2023-05-12T12:42:35.596Z,27.03
2023-05-12T12:45:05.213Z,27.06
2023-05-12T12:47:32.008Z,27.09
2023-05-12T12:49:59.200Z,27.10
2023-05-12T12:52:26.227Z,27.11
2023-05-12T12:54:52.800Z,27.11
2023-05-12T12:57:21.461Z,27.16
2023-05-12T12:59:49.504Z,27.16
2023-05-12T13:02:16.296Z,27.13
2023-05-12T13:04:42.952Z,27.09
2023-05-12T13:07:09.564Z,27.05
2023-05-12T13:09:36.265Z,27.00
2023-05-12T13:12:03.161Z,26.95
2023-05-12T13:14:29.968Z,26.90
2023-05-12T13:16:56.754Z,26.87
2023-05-12T13:19:23.512Z,26.84
2023-05-12T13:21:50.189Z,26.83
2023-05-12T13:24:16.840Z,26.82
2023-05-12T13:26:44.027Z,26.82
2023-05-12T13:29:10.737Z,26.80
2023-05-12T13:31:38.035Z,26.80
2023-05-12T13:34:04.848Z,26.81
2023-05-12T13:36:33.834Z,26.82
2023-05-12T13:39:02.225Z,26.83
2023-05-12T13:41:29.250Z,26.83
2023-05-12T13:43:55.956Z,26.83
2023-05-12T13:46:22.598Z,26.81
2023-05-12T13:48:51.353Z,26.80
2023-05-12T13:51:19.016Z,26.80
2023-05-12T13:53:45.856Z,26.78
2023-05-12T13:56:16.417Z,26.78
2023-05-12T13:58:43.016Z,26.77
2023-05-12T14:01:10.127Z,26.75
2023-05-12T14:03:36.938Z,26.74
2023-05-12T14:06:04.317Z,26.72
2023-05-12T14:08:31.098Z,26.71
2023-05-12T14:10:58.112Z,26.69
2023-05-12T14:13:25.645Z,26.67
2023-05-12T14:15:53.256Z,26.67
2023-05-12T14:18:20.109Z,26.65
2023-05-12T14:20:46.913Z,26.65
2023-05-12T14:23:13.473Z,26.64
2023-05-12T14:25:40.593Z,26.65
2023-05-12T14:28:08.221Z,26.66
2023-05-12T14:30:34.906Z,26.69
2023-05-12T14:33:02.635Z,26.72
2023-05-12T14:35:29.916Z,26.74
2023-05-12T14:37:56.464Z,26.76
2023-05-12T14:40:23.064Z,26.77
2023-05-12T14:42:49.733Z,26.76
2023-05-12T14:45:16.843Z,26.74
2023-05-12T14:47:43.931Z,26.73
2023-05-12T14:50:10.909Z,26.70
2023-05-12T14:52:39.952Z,26.67
2023-05-12T14:55:11.026Z,26.64
2023-05-12T14:57:38.267Z,26.61
2023-05-12T15:00:08.173Z,26.58
2023-05-12T15:02:35.091Z,26.55
2023-05-12T15:05:01.826Z,26.52
2023-05-12T15:07:28.696Z,26.50
2023-05-12T15:09:55.562Z,26.46
2023-05-12T15:12:22.130Z,26.44
2023-05-12T15:14:48.830Z,26.42
2023-05-12T15:17:15.542Z,26.40
2023-05-12T15:19:42.279Z,26.36
2023-05-12T15:22:08.917Z,26.34
2023-05-12T15:24:35.420Z,26.32
2023-05-12T15:27:02.262Z,26.31
2023-05-12T15:29:28.816Z,26.28
2023-05-12T15:31:55.476Z,26.25
2023-05-12T15:34:22.204Z,26.24
2023-05-12T15:36:50.280Z,26.22
2023-05-12T15:39:17.083Z,26.21
2023-05-12T15:41:43.965Z,26.18
2023-05-12T15:44:10.645Z,26.17
2023-05-12T15:46:37.712Z,26.15
2023-05-12T15:49:04.481Z,26.14
2023-05-12T15:51:32.111Z,26.12
2023-05-12T15:53:59.116Z,26.11
2023-05-12T15:56:26.124Z,26.10
2023-05-12T15:58:53.241Z,26.09
2023-05-12T16:01:19.932Z,26.07
2023-05-12T16:03:46.553Z,26.06
2023-05-12T16:06:13.284Z,26.03
2023-05-12T16:08:39.940Z,26.02
2023-05-12T16:11:07.096Z,26.01
2023-05-12T16:13:34.078Z,25.99
2023-05-12T16:16:01.463Z,25.98
2023-05-12T16:18:31.443Z,25.96
2023-05-12T16:20:58.197Z,25.95
2023-05-12T16:23:25.243Z,25.93
2023-05-12T16:25:51.839Z,25.93
2023-05-12T16:28:18.400Z,25.92
2023-05-12T16:30:45.107Z,25.91
2023-05-12T16:33:12.206Z,25.90
2023-05-12T16:35:39.135Z,25.90
2023-05-12T16:38:06.466Z,25.89
2023-05-12T16:40:33.178Z,25.88
2023-05-12T16:42:59.844Z,25.86
2023-05-12T16:45:26.442Z,25.86
2023-05-12T16:47:53.020Z,25.85
2023-05-12T16:50:19.620Z,25.84
2023-05-12T16:52:46.212Z,25.83
2023-05-12T16:55:12.811Z,25.82
2023-05-12T16:57:42.070Z,25.82
2023-05-12T17:00:10.543Z,25.81
2023-05-12T17:02:38.136Z,25.80
2023-05-12T17:05:05.187Z,25.79
2023-05-12T17:07:34.618Z,25.76
2023-05-12T17:10:02.051Z,25.76
2023-05-12T17:12:28.580Z,25.75
2023-05-12T17:15:03.830Z,25.73
2023-05-12T17:17:34.504Z,25.72
2023-05-12T17:20:01.667Z,25.70
2023-05-12T17:22:29.068Z,25.68
2023-05-12T17:24:56.173Z,25.69
2023-05-12T17:27:22.981Z,25.67
2023-05-12T17:29:49.608Z,25.67
2023-05-12T17:32:16.467Z,25.67
2023-05-12T17:34:43.011Z,25.66
2023-05-12T17:37:09.871Z,25.65
2023-05-12T17:39:39.788Z,25.64
2023-05-12T17:42:06.690Z,25.63
2023-05-12T17:44:33.307Z,25.62
2023-05-12T17:47:00.261Z,25.61
2023-05-12T17:49:27.168Z,25.59
2023-05-12T17:51:54.398Z,25.59
2023-05-12T17:54:21.008Z,25.59
2023-05-12T17:56:47.948Z,25.58
2023-05-12T17:59:14.603Z,25.57
2023-05-12T18:01:41.221Z,25.57
2023-05-12T18:04:08.447Z,25.56
2023-05-12T18:06:35.566Z,25.55
2023-05-12T18:09:03.147Z,25.54
2023-05-12T18:11:30.603Z,25.54
2023-05-12T18:14:01.329Z,25.53
2023-05-12T18:16:29.318Z,25.52
2023-05-12T18:18:56.516Z,25.52
2023-05-12T18:21:23.395Z,25.52
2023-05-12T18:23:50.127Z,25.51
2023-05-12T18:26:16.603Z,25.50
2023-05-12T18:28:43.387Z,25.48
2023-05-12T18:31:15.799Z,25.49
2023-05-12T18:33:46.309Z,25.48
2023-05-12T18:36:13.522Z,25.47
2023-05-12T18:38:40.159Z,25.46
2023-05-12T18:41:07.224Z,25.46
2023-05-12T18:43:34.431Z,25.45
2023-05-12T18:46:01.392Z,25.45
2023-05-12T18:48:27.915Z,25.44
2023-05-12T18:50:55.490Z,25.44
2023-05-12T18:53:22.690Z,25.43
2023-05-12T18:55:49.736Z,25.43
2023-05-12T18:58:16.960Z,25.42
2023-05-12T19:00:44.006Z,25.41
2023-05-12T19:03:10.799Z,25.41
2023-05-12T19:05:41.623Z,25.40
2023-05-12T19:08:08.662Z,25.40
2023-05-12T19:10:36.713Z,25.38
2023-05-12T19:13:05.404Z,25.38
2023-05-12T19:15:32.167Z,25.38
2023-05-12T19:17:58.690Z,25.36
2023-05-12T19:20:25.503Z,25.36
2023-05-12T19:22:52.599Z,25.36
2023-05-12T19:25:19.655Z,25.36
2023-05-12T19:27:47.090Z,25.35
2023-05-12T19:30:14.343Z,25.34
2023-05-12T19:32:41.964Z,25.34
2023-05-12T19:35:11.469Z,25.33
2023-05-12T19:37:38.216Z,25.33
2023-05-12T19:40:05.921Z,25.32
2023-05-12T19:42:32.521Z,25.32
2023-05-12T19:45:00.258Z,25.32
2023-05-12T19:47:27.557Z,25.31
2023-05-12T19:49:54.373Z,25.31
2023-05-12T19:52:23.863Z,25.30
2023-05-12T19:54:51.245Z,25.29
2023-05-12T19:57:18.277Z,25.29
2023-05-12T19:59:44.930Z,25.29
2023-05-12T20:02:14.211Z,25.28
2023-05-12T20:04:40.860Z,25.28
2023-05-12T20:07:08.126Z,25.27
2023-05-12T20:09:34.966Z,25.27
2023-05-12T20:12:02.230Z,25.26
2023-05-12T20:14:29.057Z,25.25
2023-05-12T20:16:56.203Z,25.25
2023-05-12T20:19:23.015Z,25.24
2023-05-12T20:21:49.716Z,25.24
2023-05-12T20:24:16.310Z,25.23
2023-05-12T20:26:43.185Z,25.23
2023-05-12T20:29:10.244Z,25.23
2023-05-12T20:31:37.107Z,25.23
2023-05-12T20:34:03.734Z,25.22
2023-05-12T20:36:30.446Z,25.21
2023-05-12T20:38:57.477Z,25.20
2023-05-12T20:41:24.224Z,25.20
2023-05-12T20:43:50.740Z,25.19
2023-05-12T20:46:17.457Z,25.18
2023-05-12T20:48:44.384Z,25.18
2023-05-12T20:51:12.127Z,25.18
2023-05-12T20:53:38.887Z,25.16
2023-05-12T20:56:06.699Z,25.17
2023-05-12T20:58:33.253Z,25.15
2023-05-12T21:01:00.236Z,25.15
2023-05-12T21:03:27.568Z,25.15
2023-05-12T21:05:54.274Z,25.13
2023-05-12T21:08:21.219Z,25.13
2023-05-12T21:10:48.206Z,25.12
2023-05-12T21:13:14.835Z,25.12
2023-05-12T21:15:41.404Z,25.11
2023-05-12T21:18:08.266Z,25.11
2023-05-12T21:20:35.092Z,25.10
2023-05-12T21:23:02.640Z,25.09
2023-05-12T21:25:29.202Z,25.09
2023-05-12T21:27:55.780Z,25.08
2023-05-12T21:30:23.023Z,25.09
2023-05-12T21:32:49.862Z,25.07
2023-05-12T21:35:16.875Z,25.07
2023-05-12T21:37:44.690Z,25.06
2023-05-12T21:40:11.710Z,25.06
2023-05-12T21:42:38.334Z,25.06
2023-05-12T21:45:05.780Z,25.06
2023-05-12T21:47:32.695Z,25.05
2023-05-12T21:49:59.326Z,25.05
2023-05-12T21:52:26.232Z,25.04
2023-05-12T21:54:52.785Z,25.04
2023-05-12T21:57:19.386Z,25.04
2023-05-12T21:59:46.262Z,25.04
2023-05-12T22:02:12.914Z,25.03
2023-05-12T22:04:39.785Z,25.03
2023-05-12T22:07:07.175Z,25.01
2023-05-12T22:09:33.785Z,25.01
2023-05-12T22:12:00.288Z,25.00
2023-05-12T22:14:27.085Z,25.00
2023-05-12T22:16:53.795Z,25.00
2023-05-12T22:19:20.861Z,25.00
2023-05-12T22:21:47.543Z,24.99
2023-05-12T22:24:14.673Z,24.99
2023-05-12T22:26:41.534Z,24.98
2023-05-12T22:29:08.478Z,24.97
2023-05-12T22:31:35.358Z,24.97
2023-05-12T22:34:01.945Z,24.96
2023-05-12T22:36:29.625Z,24.96
2023-05-12T22:38:56.225Z,24.96
2023-05-12T22:41:23.041Z,24.95
2023-05-12T22:43:49.667Z,24.95
2023-05-12T22:46:16.602Z,24.94
2023-05-12T22:48:43.489Z,24.94
2023-05-12T22:51:10.109Z,24.93
2023-05-12T22:53:36.746Z,24.93
2023-05-12T22:56:03.460Z,24.92
2023-05-12T22:58:30.248Z,24.92
2023-05-12T23:00:56.953Z,24.92
2023-05-12T23:03:23.693Z,24.91
2023-05-12T23:05:50.616Z,24.91
2023-05-12T23:08:17.246Z,24.90
2023-05-12T23:10:43.845Z,24.90
2023-05-12T23:13:10.357Z,24.90
2023-05-12T23:15:36.988Z,24.89
2023-05-12T23:18:03.728Z,24.88
2023-05-12T23:20:31.030Z,24.89
2023-05-12T23:22:57.622Z,24.88
2023-05-12T23:25:24.190Z,24.88
2023-05-12T23:27:51.119Z,24.87
2023-05-12T23:30:18.853Z,24.87
2023-05-12T23:32:46.066Z,24.87
2023-05-12T23:35:12.725Z,24.86
2023-05-12T23:37:39.610Z,24.86
2023-05-12T23:40:06.910Z,24.86
2023-05-12T23:42:33.611Z,24.86
2023-05-12T23:45:00.518Z,24.85
2023-05-12T23:47:27.312Z,24.85
2023-05-12T23:49:53.856Z,24.85
2023-05-12T23:52:21.419Z,24.84
2023-05-12T23:54:48.091Z,24.84
2023-05-12T23:57:14.967Z,24.84
2023-05-12T23:59:41.505Z,24.83
